logo
Search for airport 
image banner adimage banner adimage banner ad
image banner ad

SNJC - Cialne Umirim

Located in Umirim, Brazil

ICAO - SNJC, IATA -

Data provided by Airmate  

General information

Coordinates: S3°41'41" W39°24'31"
Elevation is 285 feet MSL.
Magnetic variation is -20.837457115° East
View others Airports in Ceará

Operational data

Special qualification required
Current time UTC:
Current local time:
Weather at : - ( 0 km )
METAR: KXVG 241833Z AUTO 18008G22KT 10SM CLR 22/16 A2974 RMK AO2
View NOTAMs / SUP AIP / TFR affecting this airport [VIEW]
Communications frequencies: [VIEW]

Runways:

RWY identifierQFULength (ft)Width (ft)SurfaceLDA (ft)
09229766OTHER
27229766OTHER

Airport contact information

Address: Umirim Brazil

Satellite view of SNJC